Time;durP1;ratioP1;P1;durP2;ratioP2;P2;SDS_P1;SDS_P2;PMS_P1;PMS_P2;Temp;Humidity;BMP_temperature;BMP_pressure;BME280_temperature;BME280_humidity;BME280_pressure;Samples;Min_cycle;Max_cycle;Signal;HPM_P1;HPM_P2
2022/12/11 00:00:14;;;;;;;3.53;2.28;;;;;;;-14.29;48.74;98662.25;6319391;28;20505;-67
2022/12/11 00:03:22;;;;;;;5.70;2.67;;;;;;;-14.22;49.11;98658.44;6320229;28;20044;-67
2022/12/11 00:06:27;;;;;;;5.32;3.05;;;;;;;-14.06;48.69;98666.16;6319905;28;20044;-67
2022/12/11 00:09:31;;;;;;;3.05;2.05;;;;;;;-14.07;48.91;98673.63;6320106;28;20494;-67
2022/12/11 00:12:34;;;;;;;;;;;;;;;-13.99;48.46;98669.03;6320732;28;20040;-66
2022/12/11 00:15:38;;;;;;;2.08;1.55;;;;;;;-14.03;48.76;98673.06;6319911;28;19981;-66
2022/12/11 00:18:41;;;;;;;2.78;1.48;;;;;;;-14.02;48.34;98662.16;6319799;28;20048;-66
2022/12/11 00:21:45;;;;;;;1.70;1.35;;;;;;;-13.85;48.26;98673.28;6322243;28;20044;-66
2022/12/11 00:24:50;;;;;;;1.48;1.00;;;;;;;-13.71;47.94;98649.63;6324864;28;20084;-66
2022/12/11 00:27:51;;;;;;;3.10;1.50;;;;;;;-13.45;47.84;98668.84;6324448;28;20052;-66
2022/12/11 00:30:52;;;;;;;3.85;2.15;;;;;;;-13.42;47.79;98663.97;6324512;28;20059;-66
2022/12/11 00:33:53;;;;;;;1.52;1.40;;;;;;;-13.00;46.55;98663.75;6324427;28;20051;-66
2022/12/11 00:36:57;;;;;;;2.83;1.52;;;;;;;-12.61;45.31;98665.06;6324177;28;20052;-66
2022/12/11 00:39:59;;;;;;;0.55;0.55;;;;;;;-12.02;43.52;98663.97;6323916;28;20044;-67
2022/12/11 00:43:06;;;;;;;0.80;0.80;;;;;;;-11.41;41.31;98651.78;6324338;28;20040;-67
2022/12/11 00:46:10;;;;;;;1.75;1.63;;;;;;;-11.07;40.29;98653.44;6324269;28;20421;-66
2022/12/11 00:49:16;;;;;;;1.88;1.17;;;;;;;-11.00;39.96;98647.88;6324202;28;20135;-66
2022/12/11 00:52:17;;;;;;;0.85;0.60;;;;;;;-10.82;39.77;98649.53;6323628;28;20059;-66
2022/12/11 00:55:18;;;;;;;0.70;0.70;;;;;;;-10.85;39.45;98646.03;6323809;28;20040;-66
2022/12/11 00:58:25;;;;;;;0.70;0.70;;;;;;;-10.65;39.44;98648.66;6324136;28;20055;-67
2022/12/11 01:01:29;;;;;;;0.90;0.90;;;;;;;-10.62;38.96;98646.25;6323975;28;20040;-65
2022/12/11 01:04:35;;;;;;;0.70;0.70;;;;;;;-10.55;38.93;98645.75;6323943;28;20047;-67
2022/12/11 01:07:36;;;;;;;1.35;1.08;;;;;;;-10.46;38.30;98646.16;6323159;28;20052;-66
2022/12/11 01:10:38;;;;;;;2.05;1.40;;;;;;;-10.42;37.93;98642.94;6323281;28;20082;-66
2022/12/11 01:13:40;;;;;;;2.15;1.50;;;;;;;-10.34;37.93;98633.13;6323252;28;20424;-68
2022/12/11 01:16:43;;;;;;;1.63;0.95;;;;;;;-10.23;37.56;98638.69;6323560;28;20557;-67
2022/12/11 01:19:45;;;;;;;1.15;0.90;;;;;;;-10.35;37.91;98633.06;6323097;28;20433;-66
2022/12/11 01:22:47;;;;;;;0.73;0.73;;;;;;;-10.16;37.31;98640.72;6323024;28;20051;-67
2022/12/11 01:25:51;;;;;;;1.35;0.80;;;;;;;-9.98;36.86;98638.97;6323087;28;20561;-67
2022/12/11 01:28:57;;;;;;;0.82;0.82;;;;;;;-9.90;36.63;98629.13;6322582;28;20131;-67
2022/12/11 01:32:01;;;;;;;0.70;0.70;;;;;;;-9.69;35.87;98649.53;6323112;28;20044;-67
2022/12/11 01:35:04;;;;;;;0.63;0.63;;;;;;;-9.78;36.02;98654.25;6322199;28;20052;-66
2022/12/11 01:38:05;;;;;;;0.70;0.70;;;;;;;-9.86;36.57;98633.53;6322668;28;20413;-67
2022/12/11 01:41:12;;;;;;;0.88;0.88;;;;;;;-9.86;36.44;98645.41;6323289;28;20044;-67
2022/12/11 01:44:13;;;;;;;1.00;0.80;;;;;;;-9.70;35.82;98647.81;6322256;28;20040;-66
2022/12/11 01:47:15;;;;;;;0.80;0.80;;;;;;;-9.68;35.31;98641.09;6322623;28;20532;-71
2022/12/11 01:50:17;;;;;;;1.48;0.90;;;;;;;-9.67;35.75;98622.47;6322744;28;20062;-67
2022/12/11 01:53:26;;;;;;;0.93;0.93;;;;;;;-9.63;35.56;98644.69;6322150;28;20048;-67
2022/12/11 01:56:35;;;;;;;0.52;0.50;;;;;;;-9.74;35.43;98623.88;6322146;28;20138;-67
2022/12/11 01:59:40;;;;;;;0.70;0.70;;;;;;;-9.56;35.30;98659.47;6322022;28;20048;-66
2022/12/11 02:02:44;;;;;;;0.43;0.43;;;;;;;-9.70;35.61;98650.34;6322122;28;20044;-67
2022/12/11 02:05:45;;;;;;;0.60;0.60;;;;;;;-9.75;35.94;98644.19;6322024;28;20055;-67
2022/12/11 02:08:49;;;;;;;0.50;0.50;;;;;;;-9.79;36.33;98632.13;6322118;28;20048;-66
2022/12/11 02:12:17;;;;;;;0.50;0.50;;;;;;;-9.71;36.51;98635.84;6322083;28;20044;-66
2022/12/11 02:15:35;;;;;;;1.23;0.60;;;;;;;-9.84;36.48;98629.38;6322069;28;20044;-66
2022/12/11 02:18:54;;;;;;;0.88;0.82;;;;;;;-9.84;36.34;98638.69;6321927;28;20052;-66
2022/12/11 02:22:00;;;;;;;2.33;1.38;;;;;;;-9.70;35.93;98637.63;6321559;28;20052;-66
2022/12/11 02:25:19;;;;;;;1.98;0.90;;;;;;;-9.96;36.48;98639.91;6322162;28;20043;-67
2022/12/11 02:28:37;;;;;;;0.55;0.55;;;;;;;-9.74;36.40;98635.72;6321568;28;20125;-67
2022/12/11 02:31:49;;;;;;;2.67;0.70;;;;;;;-10.01;36.58;98640.50;6321035;28;20501;-67
2022/12/11 02:35:04;;;;;;;0.50;0.50;;;;;;;-10.06;36.64;98636.88;6321155;28;20486;-67
2022/12/11 02:38:21;;;;;;;0.82;0.63;;;;;;;-10.28;37.24;98635.06;6321459;28;20060;-67
2022/12/11 02:41:28;;;;;;;1.42;1.17;;;;;;;-10.25;36.92;98636.03;6321620;28;20048;-67
2022/12/11 02:44:33;;;;;;;1.00;0.75;;;;;;;-10.34;37.22;98625.50;6320433;28;20055;-67
2022/12/11 02:47:46;;;;;;;0.80;0.80;;;;;;;-10.57;37.41;98632.09;6321390;28;20131;-67
2022/12/11 02:50:51;;;;;;;0.98;0.90;;;;;;;-10.45;37.27;98636.84;6321214;28;20063;-67
2022/12/11 02:53:58;;;;;;;0.70;0.70;;;;;;;-10.74;37.66;98643.16;6320574;28;20417;-67
2022/12/11 02:57:10;;;;;;;0.70;0.70;;;;;;;-10.91;38.05;98642.34;6321126;28;20119;-68
2022/12/11 03:00:15;;;;;;;;;;;;;;;-10.97;38.11;98627.69;6321831;28;20047;-68
2022/12/11 03:03:18;;;;;;;0.60;0.60;;;;;;;-10.96;37.66;98631.97;6320566;28;19942;-67
2022/12/11 03:06:26;;;;;;;1.80;0.52;;;;;;;-11.25;38.43;98622.06;6320597;28;20048;-66
2022/12/11 03:09:28;;;;;;;0.63;0.63;;;;;;;-11.26;38.43;98615.22;6320568;28;20094;-66
2022/12/11 03:12:33;;;;;;;0.60;0.60;;;;;;;-11.38;38.67;98621.50;6320429;28;20048;-67
2022/12/11 03:15:46;;;;;;;0.70;0.70;;;;;;;-11.63;39.44;98633.75;6320489;28;20062;-67
2022/12/11 03:19:11;;;;;;;1.50;0.68;;;;;;;-11.63;39.77;98623.59;6320304;28;20043;-67
2022/12/11 03:22:24;;;;;;;0.73;0.73;;;;;;;-11.76;40.33;98622.97;6320189;28;20052;-67
2022/12/11 03:25:37;;;;;;;1.20;1.00;;;;;;;-12.06;41.05;98632.47;6320491;28;20062;-66
2022/12/11 03:28:49;;;;;;;1.05;0.95;;;;;;;-12.09;40.91;98636.53;6320598;28;20051;-66
2022/12/11 03:32:06;;;;;;;1.00;0.82;;;;;;;-12.25;41.18;98640.81;6320479;28;20043;-66
2022/12/11 03:35:18;;;;;;;0.50;0.50;;;;;;;-12.34;41.65;98644.50;6320425;28;20052;-67
2022/12/11 03:38:32;;;;;;;2.65;0.80;;;;;;;-12.31;41.52;98639.59;6320525;28;20082;-68
2022/12/11 03:41:39;;;;;;;1.17;1.00;;;;;;;-12.39;41.92;98631.59;6320564;28;20413;-67
2022/12/11 03:44:46;;;;;;;1.10;0.50;;;;;;;-12.54;42.03;98639.28;6320638;28;20043;-67
2022/12/11 03:47:52;;;;;;;1.80;1.00;;;;;;;-12.53;42.11;98632.53;6320341;28;20078;-67
2022/12/11 03:50:54;;;;;;;2.42;1.10;;;;;;;-12.57;42.44;98640.75;6320408;28;20394;-67
2022/12/11 03:53:59;;;;;;;1.88;0.93;;;;;;;-12.69;42.34;98635.91;6320395;28;20451;-68
2022/12/11 03:57:04;;;;;;;2.92;1.20;;;;;;;-12.68;42.25;98641.06;6321598;28;20055;-67
2022/12/11 04:00:13;;;;;;;6.95;1.60;;;;;;;-12.79;42.68;98648.84;6324299;28;20047;-68
2022/12/11 04:03:20;;;;;;;6.88;1.30;;;;;;;-12.39;42.14;98645.94;6325413;28;20390;-66
2022/12/11 04:06:21;;;;;;;3.83;1.38;;;;;;;-12.31;41.74;98645.56;6325117;28;20036;-66
2022/12/11 04:09:25;;;;;;;0.75;0.70;;;;;;;-12.63;42.33;98645.50;6324853;28;20044;-67
2022/12/11 04:12:29;;;;;;;1.20;1.05;;;;;;;-12.82;42.51;98641.97;6324952;28;20047;-67
2022/12/11 04:15:34;;;;;;;0.80;0.80;;;;;;;-12.51;42.33;98651.22;6324946;28;20134;-67
2022/12/11 04:25:19;;;;;;;1.05;0.75;;;;;;;-12.44;41.84;98650.78;6324768;28;20031;-66
2022/12/11 04:28:21;;;;;;;1.75;1.20;;;;;;;-12.32;41.57;98658.16;6324430;28;20086;-68
2022/12/11 04:31:24;;;;;;;0.60;0.60;;;;;;;-12.16;41.74;98659.84;6324593;28;20040;-67
2022/12/11 04:34:29;;;;;;;2.05;0.80;;;;;;;-12.04;40.75;98657.94;6324550;28;20505;-67
2022/12/11 04:37:35;;;;;;;0.98;0.80;;;;;;;-12.10;41.40;98657.63;6324508;28;20051;-66
2022/12/11 04:40:37;;;;;;;0.82;0.82;;;;;;;-12.04;41.16;98663.00;6324382;28;20036;-66
2022/12/11 04:43:44;;;;;;;1.42;1.30;;;;;;;-12.21;41.33;98672.28;6323017;28;20410;-67
2022/12/11 04:46:47;;;;;;;0.85;0.85;;;;;;;-12.25;41.53;98665.31;6324187;28;20044;-67
2022/12/11 04:49:51;;;;;;;0.90;0.90;;;;;;;-12.21;41.76;98668.06;6324339;28;20497;-67
2022/12/11 04:52:56;;;;;;;0.90;0.90;;;;;;;-12.04;41.23;98665.56;6323759;28;20052;-67
2022/12/11 04:55:58;;;;;;;0.80;0.80;;;;;;;-11.93;40.85;98664.44;6323327;28;20051;-67
2022/12/11 04:59:02;;;;;;;1.70;1.02;;;;;;;-12.11;41.49;98646.59;6323835;28;20071;-66
2022/12/11 05:02:05;;;;;;;1.20;0.90;;;;;;;-12.06;41.57;98651.91;6323572;28;20040;-67
2022/12/11 05:05:11;;;;;;;1.48;1.02;;;;;;;-11.88;41.58;98655.41;6322715;28;20055;-67
2022/12/11 05:08:12;;;;;;;1.38;1.25;;;;;;;-11.64;41.33;98659.94;6322106;28;20552;-67
2022/12/11 05:11:24;;;;;;;0.52;0.52;;;;;;;-11.58;41.43;98662.78;6323756;28;20473;-69
2022/12/11 05:14:30;;;;;;;1.30;1.20;;;;;;;-11.33;41.03;98670.84;6323731;28;20082;-67
2022/12/11 05:17:34;;;;;;;1.65;1.35;;;;;;;-11.10;40.52;98663.47;6323673;28;20047;-67
2022/12/11 05:20:38;;;;;;;1.45;1.35;;;;;;;-11.06;40.15;98665.38;6323315;28;20119;-67
2022/12/11 05:23:43;;;;;;;2.90;1.80;;;;;;;-11.05;40.07;98673.88;6323037;28;20622;-67
2022/12/11 05:26:49;;;;;;;7.53;3.15;;;;;;;-10.92;39.31;98658.41;6323298;28;20043;-67
2022/12/11 05:29:56;;;;;;;3.08;2.17;;;;;;;-10.87;39.74;98672.19;6323110;28;20056;-67
2022/12/11 05:32:59;;;;;;;8.05;2.80;;;;;;;-10.96;39.76;98682.81;6322762;28;20064;-67
2022/12/11 05:36:01;;;;;;;2.13;1.50;;;;;;;-10.82;39.93;98680.94;6323105;28;20089;-67
2022/12/11 05:39:10;;;;;;;1.58;1.45;;;;;;;-10.65;39.21;98684.28;6322969;28;20040;-67
2022/12/11 05:42:11;;;;;;;1.67;1.40;;;;;;;-10.49;38.81;98691.84;6322588;28;20135;-67
2022/12/11 05:45:13;;;;;;;2.30;1.73;;;;;;;-10.52;39.26;98683.19;6322298;28;20457;-67
2022/12/11 05:48:14;;;;;;;3.70;1.20;;;;;;;-10.16;38.38;98681.44;6322095;28;20054;-67
2022/12/11 05:51:18;;;;;;;5.05;1.60;;;;;;;-10.21;38.27;98672.72;6320902;28;20044;-67
2022/12/11 05:54:19;;;;;;;;;;;;;;;-9.95;37.48;98677.28;6322763;28;20040;-67
2022/12/11 05:57:21;;;;;;;1.40;1.27;;;;;;;-10.03;37.33;98678.63;6320939;28;19920;-67
2022/12/11 06:00:22;;;;;;;1.58;1.10;;;;;;;-9.95;37.21;98682.38;6322158;28;20044;-68
2022/12/11 06:03:24;;;;;;;1.15;1.15;;;;;;;-10.11;37.39;98689.25;6320336;28;20417;-68
2022/12/11 06:06:26;;;;;;;0.77;0.77;;;;;;;-9.79;36.50;98681.41;6322148;28;20063;-68
2022/12/11 06:09:28;;;;;;;1.20;0.90;;;;;;;-9.82;36.73;98677.81;6321733;28;20077;-67
2022/12/11 06:12:30;;;;;;;0.95;0.82;;;;;;;-9.50;35.70;98679.22;6321366;28;20048;-68
2022/12/11 06:15:34;;;;;;;1.70;0.80;;;;;;;-9.62;36.14;98669.41;6321766;28;20036;-67
2022/12/11 06:18:42;;;;;;;1.20;1.10;;;;;;;-9.64;36.16;98663.34;6321262;28;20048;-67
2022/12/11 06:21:48;;;;;;;1.27;0.60;;;;;;;-9.43;35.74;98677.81;6320531;28;20043;-67
2022/12/11 06:24:52;;;;;;;2.42;0.80;;;;;;;-9.47;35.91;98676.81;6321240;28;20052;-67
2022/12/11 06:27:56;;;;;;;1.48;1.10;;;;;;;-9.39;35.82;98677.16;6321676;28;20048;-67
2022/12/11 06:31:05;;;;;;;1.35;0.75;;;;;;;-9.28;35.87;98676.78;6320776;28;20055;-67
2022/12/11 06:34:11;;;;;;;1.88;1.30;;;;;;;-9.32;36.06;98671.50;6321360;28;20536;-68
2022/12/11 06:37:17;;;;;;;1.35;0.85;;;;;;;-9.14;35.99;98672.25;6321469;28;20036;-67
2022/12/11 06:40:21;;;;;;;0.90;0.85;;;;;;;-9.08;35.68;98662.31;6320658;28;20052;-66
2022/12/11 06:43:24;;;;;;;0.88;0.88;;;;;;;-9.08;35.68;98667.41;6319437;28;20505;-68
2022/12/11 06:46:31;;;;;;;0.60;0.60;;;;;;;-9.14;35.70;98662.06;6321345;28;20040;-67
2022/12/11 06:49:40;;;;;;;1.17;0.80;;;;;;;-9.15;35.86;98665.41;6321366;28;20051;-66
2022/12/11 06:52:44;;;;;;;0.73;0.73;;;;;;;-9.22;36.16;98668.53;6321419;28;20119;-66
2022/12/11 06:55:49;;;;;;;2.80;1.20;;;;;;;-8.96;36.00;98668.72;6320356;28;20040;-68
2022/12/11 06:58:53;;;;;;;3.38;1.48;;;;;;;-8.93;35.63;98663.75;6321199;28;20040;-67
2022/12/11 07:01:56;;;;;;;3.47;1.90;;;;;;;-8.91;35.43;98651.94;6320895;28;20044;-67
2022/12/11 07:04:58;;;;;;;1.98;1.33;;;;;;;-8.92;35.84;98653.59;6320345;28;20524;-67
2022/12/11 07:08:09;;;;;;;2.90;1.92;;;;;;;-9.11;36.26;98662.19;6320403;28;20050;-66
2022/12/11 07:11:18;;;;;;;1.45;1.35;;;;;;;-8.86;35.91;98651.31;6320314;28;20051;-67
2022/12/11 07:14:23;;;;;;;1.27;1.15;;;;;;;-8.68;35.22;98651.16;6320913;28;20125;-67
2022/12/11 07:17:28;;;;;;;4.45;1.98;;;;;;;-8.83;35.91;98653.06;6320684;28;20044;-67
2022/12/11 07:20:30;;;;;;;3.65;2.35;;;;;;;-9.03;35.88;98649.72;6320452;28;20048;-67
2022/12/11 07:23:35;;;;;;;3.53;2.50;;;;;;;-9.02;36.32;98648.94;6320413;28;20531;-67
2022/12/11 07:26:40;;;;;;;3.72;1.92;;;;;;;-8.96;36.54;98645.75;6320493;28;20042;-67
2022/12/11 07:29:44;;;;;;;2.40;2.20;;;;;;;-8.99;36.36;98648.19;6320356;28;20044;-67
2022/12/11 07:32:57;;;;;;;4.75;2.15;;;;;;;-8.98;36.61;98647.38;6320003;28;20044;-67
2022/12/11 07:36:02;;;;;;;3.13;2.00;;;;;;;-8.88;36.54;98641.84;6320498;28;20136;-67
2022/12/11 07:39:07;;;;;;;3.80;2.10;;;;;;;-9.12;36.95;98636.63;6320489;28;20036;-67
2022/12/11 07:42:08;;;;;;;2.85;1.50;;;;;;;-8.94;36.49;98639.06;6319977;28;20507;-68
2022/12/11 07:45:10;;;;;;;1.83;1.40;;;;;;;-8.80;36.78;98640.47;6320091;28;20044;-67
2022/12/11 07:48:18;;;;;;;4.97;1.98;;;;;;;-8.83;36.72;98640.31;6320185;28;20043;-67
2022/12/11 07:51:42;;;;;;;4.75;1.98;;;;;;;-8.89;36.94;98638.44;6319229;28;20056;-66
2022/12/11 07:54:46;;;;;;;2.75;1.63;;;;;;;-8.97;36.58;98623.59;6319678;28;20433;-67
2022/12/11 07:57:47;;;;;;;1.63;1.25;;;;;;;-8.93;36.88;98630.59;6320050;28;20052;-67
2022/12/11 08:00:49;;;;;;;3.42;1.40;;;;;;;-8.89;36.73;98622.22;6319720;28;20055;-67
2022/12/11 08:03:54;;;;;;;2.40;1.40;;;;;;;-8.95;36.94;98612.66;6319978;28;20421;-66
2022/12/11 08:06:59;;;;;;;2.10;1.77;;;;;;;-9.04;37.04;98610.59;6320112;28;20047;-68
2022/12/11 08:10:03;;;;;;;2.38;1.60;;;;;;;-8.99;37.20;98612.50;6319486;28;20048;-66
2022/12/11 08:13:07;;;;;;;4.70;1.65;;;;;;;-9.07;37.28;98610.50;6318994;28;20052;-68
2022/12/11 08:16:14;;;;;;;1.60;1.20;;;;;;;-8.83;36.94;98613.16;6320026;28;20486;-68
2022/12/11 08:19:20;;;;;;;1.08;1.00;;;;;;;-9.02;37.31;98605.59;6319780;28;20417;-67
2022/12/11 08:22:24;;;;;;;1.42;1.23;;;;;;;-9.28;37.55;98586.69;6319598;28;20051;-67
2022/12/11 08:25:25;;;;;;;4.30;1.83;;;;;;;-9.25;37.92;98607.22;6319978;28;20040;-67
2022/12/11 08:28:30;;;;;;;0.85;0.85;;;;;;;-9.11;37.99;98595.88;6319299;28;20076;-67
2022/12/11 08:31:32;;;;;;;2.25;1.58;;;;;;;-9.19;38.37;98597.25;6319665;28;20070;-66
2022/12/11 08:34:33;;;;;;;2.15;1.75;;;;;;;-9.14;38.45;98595.78;6319096;28;20470;-67
2022/12/11 08:37:34;;;;;;;2.20;1.92;;;;;;;-9.25;39.18;98607.22;6319412;28;20043;-69
2022/12/11 08:40:38;;;;;;;4.85;1.85;;;;;;;-9.20;38.62;98610.78;6319748;28;20120;-68
2022/12/11 08:43:40;;;;;;;3.42;1.73;;;;;;;-9.11;38.63;98606.09;6322643;28;20048;-67
2022/12/11 08:46:44;;;;;;;4.03;1.83;;;;;;;-8.99;38.78;98621.00;6324093;28;20366;-67
2022/12/11 08:49:48;;;;;;;7.28;2.60;;;;;;;-8.83;38.79;98612.25;6323296;28;20536;-67
2022/12/11 08:52:55;;;;;;;3.67;1.70;;;;;;;-8.14;38.31;98623.38;6323638;28;20085;-67
2022/12/11 08:56:05;;;;;;;2.72;2.28;;;;;;;-7.94;37.89;98615.56;6323744;28;20044;-67
2022/12/11 08:59:09;;;;;;;4.18;1.67;;;;;;;-7.94;37.59;98615.56;6322629;28;20052;-67
2022/12/11 09:02:11;;;;;;;6.05;2.17;;;;;;;-8.17;38.27;98618.16;6323223;28;20531;-67
2022/12/11 09:05:15;;;;;;;4.47;1.50;;;;;;;-8.34;39.03;98615.81;6323270;28;20055;-67
2022/12/11 09:08:19;;;;;;;;;;;;;;;-8.28;38.42;98614.34;6323467;28;20043;-67
2022/12/11 09:11:26;;;;;;;4.45;1.60;;;;;;;-8.05;38.64;98614.31;6323489;28;20086;-67
2022/12/11 09:14:32;;;;;;;14.48;4.88;;;;;;;-7.87;38.69;98607.28;6323497;28;20039;-67
2022/12/11 09:17:34;;;;;;;3.42;1.65;;;;;;;-7.82;38.45;98607.47;6323196;28;20044;-66
2022/12/11 09:20:35;;;;;;;4.65;2.50;;;;;;;-8.15;38.76;98614.00;6323014;28;20044;-66
2022/12/11 09:23:39;;;;;;;2.40;1.15;;;;;;;-8.22;38.69;98614.56;6322115;28;20139;-66
2022/12/11 09:26:43;;;;;;;4.40;2.40;;;;;;;-8.71;39.77;98607.66;6323301;28;20505;-67
2022/12/11 09:29:47;;;;;;;5.55;1.73;;;;;;;-8.79;40.07;98609.03;6324698;28;20048;-66
2022/12/11 09:32:51;;;;;;;4.40;1.70;;;;;;;-8.82;40.43;98622.53;6323186;28;20044;-67
2022/12/11 09:36:00;;;;;;;4.88;1.77;;;;;;;-8.86;40.24;98622.34;6322993;28;20040;-67
2022/12/11 09:39:06;;;;;;;3.55;1.65;;;;;;;-8.68;40.49;98612.88;6322971;28;20048;-69
2022/12/11 09:42:17;;;;;;;6.28;1.85;;;;;;;-8.42;40.31;98605.34;6322520;28;20044;-67
2022/12/11 09:45:21;;;;;;;4.07;1.92;;;;;;;-8.24;39.88;98607.66;6322817;28;20044;-68
2022/12/11 09:48:26;;;;;;;4.18;1.50;;;;;;;-7.97;39.67;98606.09;6322282;28;20409;-66
2022/12/11 09:51:41;;;;;;;3.95;2.20;;;;;;;-7.84;38.76;98602.31;6322387;28;20142;-67
2022/12/11 09:55:19;;;;;;;5.30;1.70;;;;;;;-8.07;39.35;98598.06;6321667;28;20055;-67
2022/12/11 09:58:43;;;;;;;4.07;2.05;;;;;;;-8.16;39.80;98596.91;6322494;28;20043;-67
2022/12/11 10:02:11;;;;;;;7.55;2.40;;;;;;;-8.35;40.10;98597.03;6313735;28;20079;-68
2022/12/11 10:05:46;;;;;;;10.07;2.17;;;;;;;-8.34;40.29;98601.34;6322326;28;20044;-67
2022/12/11 10:09:12;;;;;;;6.43;2.08;;;;;;;-8.36;40.39;98602.97;6316341;28;20139;-66
2022/12/11 10:12:26;;;;;;;3.90;1.33;;;;;;;-8.24;40.32;98600.84;6322092;28;20051;-67
2022/12/11 10:15:27;;;;;;;8.38;1.83;;;;;;;-8.31;39.96;98588.69;6322143;28;20043;-67
2022/12/11 10:18:32;;;;;;;1.65;1.50;;;;;;;-8.28;40.10;98593.91;6322246;28;20182;-67
2022/12/11 10:21:39;;;;;;;8.50;3.75;;;;;;;-8.37;40.14;98596.13;6321946;28;20044;-68
2022/12/11 10:24:52;;;;;;;6.80;3.90;;;;;;;-8.53;40.21;98586.19;6321501;28;20535;-67
2022/12/11 10:27:56;;;;;;;4.60;2.42;;;;;;;-8.70;40.87;98593.22;6322140;28;20052;-67
2022/12/11 10:31:19;;;;;;;5.63;2.60;;;;;;;-8.82;40.67;98588.50;6320375;28;20133;-67
2022/12/11 10:34:34;;;;;;;4.13;1.77;;;;;;;-8.90;41.03;98600.09;6321730;28;20039;-66
2022/12/11 10:37:35;;;;;;;8.90;4.32;;;;;;;-9.16;41.68;98591.41;6321338;28;20044;-67
2022/12/11 10:40:42;;;;;;;9.57;4.82;;;;;;;-9.28;41.73;98586.69;6319697;28;20569;-67
2022/12/11 10:43:48;;;;;;;8.48;3.92;;;;;;;-9.57;42.48;98596.53;6321653;28;20510;-66
2022/12/11 10:47:05;;;;;;;7.63;4.40;;;;;;;-9.69;42.70;98593.50;6321616;28;20044;-67
2022/12/11 10:50:07;;;;;;;7.55;3.15;;;;;;;-9.81;42.86;98583.66;6321172;28;20055;-67
2022/12/11 10:53:20;;;;;;;9.43;4.63;;;;;;;-9.98;43.11;98577.84;6320822;28;20044;-67
2022/12/11 10:56:31;;;;;;;5.95;3.28;;;;;;;-10.15;43.60;98586.44;6321391;28;20131;-67
2022/12/11 10:59:43;;;;;;;5.18;3.42;;;;;;;-10.33;43.79;98595.81;6321405;28;20054;-68
2022/12/11 11:02:46;;;;;;;1.40;1.10;;;;;;;-10.24;43.80;98593.69;6321035;28;20048;-67
2022/12/11 11:06:13;;;;;;;3.63;2.25;;;;;;;-10.46;43.94;98602.91;6321066;28;20044;-67
2022/12/11 11:09:29;;;;;;;5.75;2.97;;;;;;;-10.44;44.38;98603.00;6320802;28;20040;-67
2022/12/11 11:12:38;;;;;;;4.53;2.75;;;;;;;-10.77;45.02;98603.19;6320173;28;20044;-68
2022/12/11 11:15:42;;;;;;;4.10;2.28;;;;;;;-10.73;45.16;98599.09;6320522;28;20411;-68
2022/12/11 11:18:56;;;;;;;1.65;1.58;;;;;;;-10.85;45.14;98613.00;6320676;28;20051;-67
2022/12/11 11:22:07;;;;;;;2.70;1.23;;;;;;;-10.88;45.18;98610.31;6320437;28;20059;-67
2022/12/11 11:25:20;;;;;;;5.20;2.25;;;;;;;-11.12;45.84;98610.03;6320103;28;20082;-68
2022/12/11 11:28:36;;;;;;;4.35;2.88;;;;;;;-11.33;46.15;98604.78;6320562;28;20489;-67
2022/12/11 11:31:37;;;;;;;4.32;2.67;;;;;;;-11.46;46.51;98627.84;6319280;28;20092;-67
2022/12/11 11:34:42;;;;;;;3.58;1.55;;;;;;;-11.54;46.50;98613.91;6320046;28;20048;-67
2022/12/11 11:38:11;;;;;;;4.50;1.90;;;;;;;-11.56;46.50;98615.50;6320499;28;20040;-67
2022/12/11 11:41:42;;;;;;;3.53;2.30;;;;;;;-11.67;46.94;98612.41;6320365;28;20047;-67
2022/12/11 11:45:04;;;;;;;8.20;2.35;;;;;;;-11.44;46.67;98616.09;6320576;28;20043;-68
2022/12/11 11:48:44;;;;;;;3.15;1.85;;;;;;;-11.49;46.09;98611.56;6320297;28;20043;-67
2022/12/11 11:51:53;;;;;;;5.75;2.80;;;;;;;-11.58;46.38;98627.22;6320041;28;20044;-68
2022/12/11 11:55:14;;;;;;;4.78;2.50;;;;;;;-11.72;46.55;98623.13;6319993;28;20056;-71
2022/12/11 11:58:23;;;;;;;5.97;3.33;;;;;;;-11.84;47.23;98639.50;6319617;28;20131;-67
2022/12/11 12:01:28;;;;;;;5.75;3.92;;;;;;;-11.94;47.05;98650.03;6320580;28;20040;-69
2022/12/11 12:04:33;;;;;;;9.55;3.90;;;;;;;-12.10;47.45;98639.88;6320159;28;20036;-68
2022/12/11 12:07:48;;;;;;;5.78;2.10;;;;;;;-11.84;47.35;98641.16;6319583;28;20541;-68
2022/12/11 12:11:10;;;;;;;4.53;2.60;;;;;;;-11.56;46.38;98638.34;6319671;28;20120;-70
2022/12/11 12:14:28;;;;;;;9.50;4.85;;;;;;;-11.52;45.83;98642.78;6319303;28;20509;-67
2022/12/11 12:17:53;;;;;;;10.70;5.18;;;;;;;-11.53;45.82;98633.41;6321251;28;20461;-67
2022/12/11 12:21:08;;;;;;;9.65;3.80;;;;;;;-11.77;46.29;98630.53;6324832;28;20040;-68
2022/12/11 12:24:28;;;;;;;4.05;2.28;;;;;;;-11.89;46.31;98635.88;6324138;28;20048;-67
2022/12/11 12:27:58;;;;;;;4.20;1.85;;;;;;;-12.12;46.83;98641.44;6324444;28;20048;-68
2022/12/11 12:31:08;;;;;;;4.50;2.13;;;;;;;-12.31;46.94;98648.09;6324142;28;20047;-66
2022/12/11 12:34:17;;;;;;;3.13;2.10;;;;;;;-12.28;46.87;98655.88;6323973;28;20048;-67
2022/12/11 12:37:34;;;;;;;8.52;2.35;;;;;;;-12.30;46.93;98657.44;6323955;28;20044;-66
2022/12/11 12:40:38;;;;;;;2.55;1.40;;;;;;;-12.54;47.39;98662.09;6324446;28;20043;-67
2022/12/11 12:44:12;;;;;;;3.20;1.80;;;;;;;-12.70;47.48;98665.44;6324265;28;20043;-67
2022/12/11 12:47:18;;;;;;;4.53;2.15;;;;;;;-12.56;47.68;98662.81;6324309;28;20067;-67
2022/12/11 12:50:26;;;;;;;4.22;1.77;;;;;;;-12.71;47.49;98662.81;6323680;28;20052;-67
2022/12/11 12:53:33;;;;;;;7.80;2.47;;;;;;;-12.58;47.77;98665.25;6322848;28;20044;-66
2022/12/11 12:56:39;;;;;;;4.35;2.30;;;;;;;-12.49;47.11;98664.84;6323027;28;20113;-67
2022/12/11 12:59:53;;;;;;;4.05;2.22;;;;;;;-12.53;46.82;98660.44;6323764;28;20040;-67
2022/12/11 13:02:55;;;;;;;9.15;3.58;;;;;;;-12.60;46.76;98660.88;6323521;28;20417;-69
2022/12/11 13:06:07;;;;;;;4.05;2.03;;;;;;;-12.68;47.49;98674.03;6323916;28;20048;-68
2022/12/11 13:09:29;;;;;;;14.35;6.13;;;;;;;-12.95;47.92;98673.34;6323478;28;20111;-67
2022/12/11 13:12:39;;;;;;;9.15;4.22;;;;;;;-12.96;48.35;98670.75;6322765;28;20402;-67
2022/12/11 13:15:43;;;;;;;7.95;4.72;;;;;;;-13.04;48.09;98671.97;6323419;28;20051;-67
2022/12/11 13:18:49;;;;;;;7.72;4.40;;;;;;;-13.20;48.47;98676.16;6322129;28;20044;-67
2022/12/11 13:22:14;;;;;;;8.05;4.85;;;;;;;-13.37;48.74;98667.66;6323254;28;20067;-67
2022/12/11 13:25:25;;;;;;;3.92;2.25;;;;;;;-13.36;49.06;98668.50;6322901;28;20051;-67
2022/12/11 13:28:28;;;;;;;3.65;2.72;;;;;;;-13.44;49.29;98657.97;6322134;28;20044;-67
2022/12/11 13:31:37;;;;;;;1.85;1.40;;;;;;;-13.46;49.35;98656.13;6322231;28;20077;-67
2022/12/11 13:34:50;;;;;;;3.78;2.30;;;;;;;-13.46;49.37;98656.13;6322889;28;20044;-66
2022/12/11 13:38:02;;;;;;;6.93;2.13;;;;;;;-13.53;49.22;98664.13;6323046;28;20109;-68
2022/12/11 13:41:10;;;;;;;2.53;1.77;;;;;;;-13.52;49.51;98650.72;6322799;28;20047;-68
2022/12/11 13:44:20;;;;;;;1.90;1.80;;;;;;;-13.69;49.12;98652.28;6322198;28;20048;-68
2022/12/11 13:47:25;;;;;;;1.90;1.77;;;;;;;-13.55;49.31;98632.81;6322630;28;20040;-68
2022/12/11 13:50:33;;;;;;;1.45;1.23;;;;;;;-13.43;49.01;98641.13;6322746;28;20043;-67
2022/12/11 13:53:35;;;;;;;2.35;1.70;;;;;;;-13.21;48.03;98638.97;6322344;28;20162;-67
2022/12/11 13:56:39;;;;;;;2.05;1.58;;;;;;;-13.22;47.91;98632.13;6321907;28;20409;-68
2022/12/11 13:59:45;;;;;;;1.73;1.52;;;;;;;-13.02;47.73;98625.69;6321992;28;20056;-70
2022/12/11 14:02:54;;;;;;;2.42;1.38;;;;;;;-12.71;46.75;98628.22;6322234;28;20502;-66
2022/12/11 14:05:59;;;;;;;3.30;1.80;;;;;;;-12.67;46.20;98625.06;6322255;28;20040;-68
2022/12/11 14:09:06;;;;;;;2.45;1.60;;;;;;;-12.57;45.52;98611.19;6322208;28;20032;-68
2022/12/11 14:12:18;;;;;;;2.60;1.63;;;;;;;-12.56;45.14;98610.41;6321931;28;20127;-68
2022/12/11 14:15:23;;;;;;;2.60;2.03;;;;;;;-12.63;45.17;98622.69;6322002;28;20047;-67
2022/12/11 14:18:32;;;;;;;1.73;0.90;;;;;;;-12.61;45.49;98623.63;6321473;28;20498;-69
2022/12/11 14:21:35;;;;;;;5.00;2.30;;;;;;;-12.60;45.37;98620.31;6320977;28;20051;-67
2022/12/11 14:24:51;;;;;;;3.00;1.60;;;;;;;-12.68;45.46;98623.31;6321077;28;20056;-67
2022/12/11 14:27:57;;;;;;;2.53;1.83;;;;;;;-12.71;45.73;98634.94;6319818;28;20047;-67
2022/12/11 14:31:03;;;;;;;2.30;1.73;;;;;;;-12.76;45.27;98624.56;6321634;28;20048;-69
2022/12/11 14:34:20;;;;;;;2.05;1.70;;;;;;;-12.67;44.98;98635.19;6321172;28;20040;-68
2022/12/11 14:37:25;;;;;;;0.73;0.73;;;;;;;-12.55;44.63;98634.97;6320891;28;20048;-68
2022/12/11 14:40:34;;;;;;;2.00;1.38;;;;;;;-12.61;44.62;98634.66;6320795;28;20416;-67
2022/12/11 14:43:42;;;;;;;4.97;1.73;;;;;;;-12.80;44.87;98635.31;6321238;28;20040;-67